Dublin Express — DDSB2 — position and weather

sailwx.info

Track history (hours):
 
Tides and Currents Weather Stations Pressure Air Temp Water Temp Dewpoint Dewpoint Depression Visibility Wind Speed Wind Dir Waves Ship Positions

Dublin Express

Last reported at 2018-Jun-20 12:00 UTC. Time now 2018-Jun-20 13:06 UTC.
Position N 04°42' W 080°00'.

Length 281 m; beam 32 m; draft 13 m.

Type: Ship. MMSI: 218023000.

Wind from 240 at 11 knots

Barometer 1012.7 mb
Air temperature 26.8 ° C
Visibility: greater than 10.8 NM
Dewpoint 23.6 ° C
Water temperature 25.8 ° C

Date/timePositionNaut miles runAvg speedWind from/ knotsBaromVisibWave heightAir tempDewpointWater temp
2018-Jun-20 12:00N 04°42' W 080°00'12821.4 240 / 111012.710.8 26.823.625.8
2018-Jun-20 06:00N 06°48' W 079°36'14910.9 080 / 41012.310.8 26.024.225.4
2018-Jun-19 16:22N 09°16' W 079°55'0 1.2
2018-Jun-19 16:00N 09°16' W 079°55'0 0.4
2018-Jun-19 15:30N 09°16' W 079°55'0 0.4
2018-Jun-19 15:00N 09°17' W 079°55'0 0.4
2018-Jun-19 14:29N 09°17' W 079°55'1 2.3
2018-Jun-19 14:00N 09°18' W 079°55'1 1.5
2018-Jun-19 13:30N 09°19' W 079°55'1 1.8
2018-Jun-19 13:00N 09°20' W 079°55'4 8.0
2018-Jun-19 12:30N 09°24' W 079°55'2 3.8
2018-Jun-19 12:00N 09°25' W 079°56'0 0.1
2018-Jun-19 11:28N 09°25' W 079°56'0 0.0
2018-Jun-19 10:58N 09°25' W 079°56'0 0.0
2018-Jun-19 10:28N 09°25' W 079°56'0 0.0
2018-Jun-19 09:58N 09°25' W 079°56'0 0.0
2018-Jun-19 09:28N 09°25' W 079°56'0 0.0
2018-Jun-19 08:58N 09°25' W 079°56'0 0.0
2018-Jun-19 08:22N 09°25' W 079°56'0 0.0
2018-Jun-19 07:40N 09°25' W 079°56'0 0.1
2018-Jun-19 06:46N 09°25' W 079°56'0 0.4
2018-Jun-19 06:28N 09°25' W 079°56'0 0.4
2018-Jun-19 05:58N 09°25' W 079°56'0 0.0
2018-Jun-19 05:16N 09°25' W 079°56'0 0.0
2018-Jun-19 04:58N 09°25' W 079°56'0 0.0
2018-Jun-19 04:28N 09°25' W 079°56'0 0.0
2018-Jun-19 03:58N 09°25' W 079°56'0 0.0
2018-Jun-19 03:28N 09°25' W 079°56'0 0.0
2018-Jun-19 02:58N 09°25' W 079°56'0 0.0
2018-Jun-19 02:28N 09°25' W 079°56'0 0.0
2018-Jun-19 01:58N 09°25' W 079°56'0 0.0
2018-Jun-18 22:44N 09°25' W 079°56'0 1.3
2018-Jun-18 22:30N 09°26' W 079°56'3 6.8
2018-Jun-18 22:00N 09°29' W 079°55'4611.5
2018-Jun-18 18:00N 09°48' W 079°12'21015.9 060 / 141011.9 5.4 30.025.327.0
2018-Jun-18 04:49N 10°18' W 075°41'515.5
2018-Jun-18 04:30N 10°19' W 075°36'5 9.3
2018-Jun-18 04:00N 10°20' W 075°31'2 5.1
2018-Jun-18 03:31N 10°23' W 075°31'0 0.1
2018-Jun-18 02:58N 10°23' W 075°31'0 0.0
2018-Jun-18 02:28N 10°23' W 075°31'0 0.0
2018-Jun-18 01:58N 10°23' W 075°31'0 0.0
2018-Jun-18 01:02N 10°23' W 075°31'0 0.0
2018-Jun-18 00:50N 10°23' W 075°31'0 0.0
2018-Jun-18 00:28N 10°23' W 075°31'0 0.0
2018-Jun-17 23:58N 10°23' W 075°31'0 0.0
2018-Jun-17 23:28N 10°23' W 075°31'0 0.0
2018-Jun-17 22:56N 10°23' W 075°31'0 0.0
2018-Jun-17 22:28N 10°23' W 075°31'0 0.0
2018-Jun-17 21:58N 10°23' W 075°31'0 0.0
2018-Jun-17 21:28N 10°23' W 075°31'0 0.0
2018-Jun-17 20:56N 10°23' W 075°31'0 0.0
2018-Jun-17 20:26N 10°23' W 075°31'0 0.0
2018-Jun-17 19:58N 10°23' W 075°31'0 0.0
2018-Jun-17 19:28N 10°23' W 075°31'0 0.0
2018-Jun-17 18:58N 10°23' W 075°31'0 0.0
2018-Jun-17 18:28N 10°23' W 075°31'0 0.0
2018-Jun-17 17:58N 10°23' W 075°31'0 0.0
2018-Jun-17 17:16N 10°22' W 075°31'32 2.8
2018-Jun-17 06:00N 10°54' W 075°36'9015.0 040 / 181010.2 5.4 27.025.227.0
2018-Jun-17 00:00N 12°24' W 075°30'19316.1 050 / 241011.410.8 26.024.625.2
2018-Jun-16 12:00N 15°36' W 075°06'29516.4 090 / 231014.710.8 27.023.625.6
2018-Jun-15 18:00N 20°24' W 074°00'10717.8 110 / 111016.4 5.4 29.022.526.8
2018-Jun-15 12:00N 21°12' W 075°42'9415.6 120 / 121016.810.8 27.525.525.6
2018-Jun-15 06:00N 21°54' W 077°12'18815.7 110 / 121017.310.8 27.525.726.2
2018-Jun-14 18:00N 24°18' W 079°24'7816.3 010 / 41018.910.8 29.523.926.6
2018-Jun-14 13:12N 25°34' W 079°41'314.0
2018-Jun-14 13:00N 25°37' W 079°41'713.8
2018-Jun-14 12:31N 25°44' W 079°43'713.8
2018-Jun-14 12:01N 25°50' W 079°48'714.7
2018-Jun-14 11:30N 25°56' W 079°52'715.0
2018-Jun-14 11:00N 26°02' W 079°57'713.6
2018-Jun-14 10:30N 26°05' W 080°04'3 6.0
2018-Jun-14 10:00N 26°05' W 080°07'1 1.6
2018-Jun-14 09:25N 26°04' W 080°07'0 0.0
2018-Jun-14 08:37N 26°04' W 080°07'0 0.0
2018-Jun-14 08:21N 26°04' W 080°07'0 0.0
2018-Jun-14 07:55N 26°04' W 080°07'0 0.0
2018-Jun-14 07:25N 26°04' W 080°07'0 0.0
2018-Jun-14 06:49N 26°04' W 080°07'0 0.0
2018-Jun-14 06:21N 26°04' W 080°07'0 0.0
2018-Jun-14 05:55N 26°04' W 080°07'0 0.0
2018-Jun-14 05:25N 26°04' W 080°07'0 0.0
2018-Jun-14 04:55N 26°04' W 080°07'0 0.0
2018-Jun-14 04:25N 26°04' W 080°07'0 0.0
2018-Jun-14 03:57N 26°04' W 080°07'0 0.0
2018-Jun-14 03:27N 26°04' W 080°07'0 0.0
2018-Jun-14 02:57N 26°04' W 080°07'0 0.0
2018-Jun-14 02:27N 26°04' W 080°07'0 0.0
2018-Jun-14 01:57N 26°04' W 080°07'0 0.0
2018-Jun-14 01:27N 26°04' W 080°07'0 0.0
2018-Jun-14 00:49N 26°04' W 080°07'0 0.0
2018-Jun-14 00:27N 26°04' W 080°07'0 0.0
2018-Jun-13 23:57N 26°04' W 080°07'0 0.0
2018-Jun-13 23:27N 26°04' W 080°07'0 0.0
2018-Jun-13 22:57N 26°04' W 080°07'0 0.0
2018-Jun-13 22:27N 26°04' W 080°07'0 0.0
2018-Jun-13 21:57N 26°04' W 080°07'0 0.0
2018-Jun-13 21:27N 26°04' W 080°07'0 0.0
2018-Jun-13 20:57N 26°04' W 080°07'0 0.0
2018-Jun-13 20:19N 26°04' W 080°07'0 0.0
2018-Jun-13 19:51N 26°04' W 080°07'0 0.0
2018-Jun-13 19:21N 26°04' W 080°07'0 0.0
2018-Jun-13 18:51N 26°04' W 080°07'0 0.0
2018-Jun-13 18:21N 26°04' W 080°07'0 0.0
2018-Jun-13 17:55N 26°04' W 080°07'0 0.0
2018-Jun-13 17:25N 26°04' W 080°07'0 0.1
2018-Jun-13 17:00N 26°04' W 080°07'1 2.3
2018-Jun-13 16:30N 26°05' W 080°07'4 7.3
2018-Jun-13 16:00N 26°06' W 080°03'2 3.1
2018-Jun-13 15:30N 26°05' W 080°01'2 4.8
2018-Jun-13 15:00N 26°07' W 080°00'4 7.7
2018-Jun-13 14:30N 26°11' W 079°58'612.0
2018-Jun-13 14:00N 26°16' W 079°57'815.3
2018-Jun-13 13:30N 26°24' W 079°56'2516.5
2018-Jun-13 12:00N 26°48' W 079°48'28215.7 150 / 51018.310.8 26.523.726.6
2018-Jun-12 18:00N 31°30' W 079°36'7617.4 280 / 81018.210.8 27.021.524.8
2018-Jun-12 13:37N 32°45' W 079°51'214.3
2018-Jun-12 13:30N 32°46' W 079°53'4 0.2
2018-Jun-11 21:08N 32°49' W 079°54'1 7.0
2018-Jun-11 20:59N 32°49' W 079°55'5 9.7
2018-Jun-11 20:31N 32°45' W 079°51'3011.7
2018-Jun-11 18:00N 32°36' W 079°18'8814.7 220 / 181013.110.8 25.522.824.6
2018-Jun-11 12:00N 33°12' W 077°42'8414.1 240 / 211012.810.8 26.524.524.6
2018-Jun-11 06:00N 34°06' W 076°24'7612.7 260 / 221012.210.8 26.523.824.4
2018-Jun-11 00:00N 34°54' W 075°12'7212.0 190 / 111012.510.8 24.520.226.0
2018-Jun-10 18:00N 36°06' W 075°18'   110 / 81015.410.8 25.522.820.4
Track history (hours):
 
Tides and Currents Weather Stations Pressure Air Temp Water Temp Dewpoint Dewpoint Depression Visibility Wind Speed Wind Dir Waves Ship Positions

Dublin Express

Last reported at 2018-Jun-20 12:00 UTC. Time now 2018-Jun-20 13:06 UTC.
Position N 04°42' W 080°00'.

Length 281 m; beam 32 m; draft 13 m.

Type: Ship. MMSI: 218023000.

Wind from 240 at 11 knots

Barometer 1012.7 mb
Air temperature 26.8 ° C
Visibility: greater than 10.8 NM
Dewpoint 23.6 ° C
Water temperature 25.8 ° C

Date/timePositionNaut miles runAvg speedWind from/ knotsBaromVisibWave heightAir tempDewpointWater temp
2018-Jun-20 12:00N 04°42' W 080°00'12821.4 240 / 111012.710.8 26.823.625.8
2018-Jun-20 06:00N 06°48' W 079°36'14910.9 080 / 41012.310.8 26.024.225.4
2018-Jun-19 16:22N 09°16' W 079°55'0 1.2
2018-Jun-19 16:00N 09°16' W 079°55'0 0.4
2018-Jun-19 15:30N 09°16' W 079°55'0 0.4
2018-Jun-19 15:00N 09°17' W 079°55'0 0.4
2018-Jun-19 14:29N 09°17' W 079°55'1 2.3
2018-Jun-19 14:00N 09°18' W 079°55'1 1.5
2018-Jun-19 13:30N 09°19' W 079°55'1 1.8
2018-Jun-19 13:00N 09°20' W 079°55'4 8.0
2018-Jun-19 12:30N 09°24' W 079°55'2 3.8
2018-Jun-19 12:00N 09°25' W 079°56'0 0.1
2018-Jun-19 11:28N 09°25' W 079°56'0 0.0
2018-Jun-19 10:58N 09°25' W 079°56'0 0.0
2018-Jun-19 10:28N 09°25' W 079°56'0 0.0
2018-Jun-19 09:58N 09°25' W 079°56'0 0.0
2018-Jun-19 09:28N 09°25' W 079°56'0 0.0
2018-Jun-19 08:58N 09°25' W 079°56'0 0.0
2018-Jun-19 08:22N 09°25' W 079°56'0 0.0
2018-Jun-19 07:40N 09°25' W 079°56'0 0.1
2018-Jun-19 06:46N 09°25' W 079°56'0 0.4
2018-Jun-19 06:28N 09°25' W 079°56'0 0.4
2018-Jun-19 05:58N 09°25' W 079°56'0 0.0
2018-Jun-19 05:16N 09°25' W 079°56'0 0.0
2018-Jun-19 04:58N 09°25' W 079°56'0 0.0
2018-Jun-19 04:28N 09°25' W 079°56'0 0.0
2018-Jun-19 03:58N 09°25' W 079°56'0 0.0
2018-Jun-19 03:28N 09°25' W 079°56'0 0.0
2018-Jun-19 02:58N 09°25' W 079°56'0 0.0
2018-Jun-19 02:28N 09°25' W 079°56'0 0.0
2018-Jun-19 01:58N 09°25' W 079°56'0 0.0
2018-Jun-18 22:44N 09°25' W 079°56'0 1.3
2018-Jun-18 22:30N 09°26' W 079°56'3 6.8
2018-Jun-18 22:00N 09°29' W 079°55'4611.5
2018-Jun-18 18:00N 09°48' W 079°12'21015.9 060 / 141011.9 5.4 30.025.327.0
2018-Jun-18 04:49N 10°18' W 075°41'515.5
2018-Jun-18 04:30N 10°19' W 075°36'5 9.3
2018-Jun-18 04:00N 10°20' W 075°31'2 5.1
2018-Jun-18 03:31N 10°23' W 075°31'0 0.1
2018-Jun-18 02:58N 10°23' W 075°31'0 0.0
2018-Jun-18 02:28N 10°23' W 075°31'0 0.0
2018-Jun-18 01:58N 10°23' W 075°31'0 0.0
2018-Jun-18 01:02N 10°23' W 075°31'0 0.0
2018-Jun-18 00:50N 10°23' W 075°31'0 0.0
2018-Jun-18 00:28N 10°23' W 075°31'0 0.0
2018-Jun-17 23:58N 10°23' W 075°31'0 0.0
2018-Jun-17 23:28N 10°23' W 075°31'0 0.0
2018-Jun-17 22:56N 10°23' W 075°31'0 0.0
2018-Jun-17 22:28N 10°23' W 075°31'0 0.0
2018-Jun-17 21:58N 10°23' W 075°31'0 0.0
2018-Jun-17 21:28N 10°23' W 075°31'0 0.0
2018-Jun-17 20:56N 10°23' W 075°31'0 0.0
2018-Jun-17 20:26N 10°23' W 075°31'0 0.0
2018-Jun-17 19:58N 10°23' W 075°31'0 0.0
2018-Jun-17 19:28N 10°23' W 075°31'0 0.0
2018-Jun-17 18:58N 10°23' W 075°31'0 0.0
2018-Jun-17 18:28N 10°23' W 075°31'0 0.0
2018-Jun-17 17:58N 10°23' W 075°31'0 0.0
2018-Jun-17 17:16N 10°22' W 075°31'32 2.8
2018-Jun-17 06:00N 10°54' W 075°36'9015.0 040 / 181010.2 5.4 27.025.227.0
2018-Jun-17 00:00N 12°24' W 075°30'19316.1 050 / 241011.410.8 26.024.625.2
2018-Jun-16 12:00N 15°36' W 075°06'29516.4 090 / 231014.710.8 27.023.625.6
2018-Jun-15 18:00N 20°24' W 074°00'10717.8 110 / 111016.4 5.4 29.022.526.8
2018-Jun-15 12:00N 21°12' W 075°42'9415.6 120 / 121016.810.8 27.525.525.6
2018-Jun-15 06:00N 21°54' W 077°12'18815.7 110 / 121017.310.8 27.525.726.2
2018-Jun-14 18:00N 24°18' W 079°24'7816.3 010 / 41018.910.8 29.523.926.6
2018-Jun-14 13:12N 25°34' W 079°41'314.0
2018-Jun-14 13:00N 25°37' W 079°41'713.8
2018-Jun-14 12:31N 25°44' W 079°43'713.8
2018-Jun-14 12:01N 25°50' W 079°48'714.7
2018-Jun-14 11:30N 25°56' W 079°52'715.0
2018-Jun-14 11:00N 26°02' W 079°57'713.6
2018-Jun-14 10:30N 26°05' W 080°04'3 6.0
2018-Jun-14 10:00N 26°05' W 080°07'1 1.6
2018-Jun-14 09:25N 26°04' W 080°07'0 0.0
2018-Jun-14 08:37N 26°04' W 080°07'0 0.0
2018-Jun-14 08:21N 26°04' W 080°07'0 0.0
2018-Jun-14 07:55N 26°04' W 080°07'0 0.0
2018-Jun-14 07:25N 26°04' W 080°07'0 0.0
2018-Jun-14 06:49N 26°04' W 080°07'0 0.0
2018-Jun-14 06:21N 26°04' W 080°07'0 0.0
2018-Jun-14 05:55N 26°04' W 080°07'0 0.0
2018-Jun-14 05:25N 26°04' W 080°07'0 0.0
2018-Jun-14 04:55N 26°04' W 080°07'0 0.0
2018-Jun-14 04:25N 26°04' W 080°07'0 0.0
2018-Jun-14 03:57N 26°04' W 080°07'0 0.0
2018-Jun-14 03:27N 26°04' W 080°07'0 0.0
2018-Jun-14 02:57N 26°04' W 080°07'0 0.0
2018-Jun-14 02:27N 26°04' W 080°07'0 0.0
2018-Jun-14 01:57N 26°04' W 080°07'0 0.0
2018-Jun-14 01:27N 26°04' W 080°07'0 0.0
2018-Jun-14 00:49N 26°04' W 080°07'0 0.0
2018-Jun-14 00:27N 26°04' W 080°07'0 0.0
2018-Jun-13 23:57N 26°04' W 080°07'0 0.0
2018-Jun-13 23:27N 26°04' W 080°07'0 0.0
2018-Jun-13 22:57N 26°04' W 080°07'0 0.0
2018-Jun-13 22:27N 26°04' W 080°07'0 0.0
2018-Jun-13 21:57N 26°04' W 080°07'0 0.0
2018-Jun-13 21:27N 26°04' W 080°07'0 0.0
2018-Jun-13 20:57N 26°04' W 080°07'0 0.0
2018-Jun-13 20:19N 26°04' W 080°07'0 0.0
2018-Jun-13 19:51N 26°04' W 080°07'0 0.0
2018-Jun-13 19:21N 26°04' W 080°07'0 0.0
2018-Jun-13 18:51N 26°04' W 080°07'0 0.0
2018-Jun-13 18:21N 26°04' W 080°07'0 0.0
2018-Jun-13 17:55N 26°04' W 080°07'0 0.0
2018-Jun-13 17:25N 26°04' W 080°07'0 0.1
2018-Jun-13 17:00N 26°04' W 080°07'1 2.3
2018-Jun-13 16:30N 26°05' W 080°07'4 7.3
2018-Jun-13 16:00N 26°06' W 080°03'2 3.1
2018-Jun-13 15:30N 26°05' W 080°01'2 4.8
2018-Jun-13 15:00N 26°07' W 080°00'4 7.7
2018-Jun-13 14:30N 26°11' W 079°58'612.0
2018-Jun-13 14:00N 26°16' W 079°57'815.3
2018-Jun-13 13:30N 26°24' W 079°56'2516.5
2018-Jun-13 12:00N 26°48' W 079°48'28215.7 150 / 51018.310.8 26.523.726.6
2018-Jun-12 18:00N 31°30' W 079°36'7617.4 280 / 81018.210.8 27.021.524.8
2018-Jun-12 13:37N 32°45' W 079°51'214.3
2018-Jun-12 13:30N 32°46' W 079°53'4 0.2
2018-Jun-11 21:08N 32°49' W 079°54'1 7.0
2018-Jun-11 20:59N 32°49' W 079°55'5 9.7
2018-Jun-11 20:31N 32°45' W 079°51'3011.7
2018-Jun-11 18:00N 32°36' W 079°18'8814.7 220 / 181013.110.8 25.522.824.6
2018-Jun-11 12:00N 33°12' W 077°42'8414.1 240 / 211012.810.8 26.524.524.6
2018-Jun-11 06:00N 34°06' W 076°24'7612.7 260 / 221012.210.8 26.523.824.4
2018-Jun-11 00:00N 34°54' W 075°12'7212.0 190 / 111012.510.8 24.520.226.0
2018-Jun-10 18:00N 36°06' W 075°18'   110 / 81015.410.8 25.522.820.4

Dump ship's entire track history